Time;durP1;ratioP1;P1;durP2;ratioP2;P2;SDS_P1;SDS_P2;PMS_P1;PMS_P2;Temp;Humidity;BMP_temperature;BMP_pressure;BME280_temperature;BME280_humidity;BME280_pressure;Samples;Min_cycle;Max_cycle;Signal;HPM_P1;HPM_P2
2021/04/21 00:01:08;;;;;;;182.57;26.67;;;6.10;99.90;;;;;;5050287;28;20039;-49
2021/04/21 00:04:15;;;;;;;50.33;19.95;;;5.90;99.90;;;;;;5050197;28;20048;-50
2021/04/21 00:07:21;;;;;;;63.45;20.30;;;5.80;99.90;;;;;;5049401;28;20044;-50
2021/04/21 00:10:27;;;;;;;31.30;22.20;;;5.80;99.90;;;;;;5050152;28;20044;-49
2021/04/21 00:13:32;;;;;;;31.38;20.63;;;5.90;99.90;;;;;;5049827;28;20379;-49
2021/04/21 00:16:38;;;;;;;30.98;20.52;;;6.00;99.90;;;;;;5050069;28;20052;-49
2021/04/21 00:19:43;;;;;;;30.42;21.17;;;6.00;99.90;;;;;;5050032;28;20056;-50
2021/04/21 00:22:53;;;;;;;30.65;21.98;;;6.00;99.90;;;;;;5050023;28;20419;-50
2021/04/21 00:25:58;;;;;;;34.90;24.10;;;6.00;99.90;;;;;;5049818;28;20056;-49
2021/04/21 00:29:04;;;;;;;34.20;23.27;;;6.10;99.90;;;;;;5048957;28;20052;-50
2021/04/21 00:32:10;;;;;;;34.10;22.48;;;6.20;99.90;;;;;;5049681;28;20044;-49
2021/04/21 00:35:35;;;;;;;28.90;19.98;;;6.20;99.90;;;;;;5049638;28;20064;-49
2021/04/21 00:38:39;;;;;;;30.77;20.23;;;6.20;99.90;;;;;;5048950;28;20040;-49
2021/04/21 00:42:07;;;;;;;33.92;22.63;;;6.10;99.90;;;;;;5049749;28;20526;-50
2021/04/21 00:45:17;;;;;;;30.50;20.90;;;6.10;99.90;;;;;;5049196;28;20043;-51
2021/04/21 00:48:57;;;;;;;31.80;21.27;;;6.10;99.90;;;;;;5049709;28;20063;-49
2021/04/21 00:52:33;;;;;;;32.97;22.77;;;6.00;99.90;;;;;;5048517;28;20055;-49
2021/04/21 00:56:06;;;;;;;33.17;23.13;;;6.00;99.90;;;;;;5048825;28;20044;-50
2021/04/21 00:59:34;;;;;;;35.85;23.20;;;5.80;99.90;;;;;;5048429;28;20093;-49
2021/04/21 01:02:48;;;;;;;32.38;21.23;;;5.70;99.90;;;;;;5048696;28;20040;-49
2021/04/21 01:06:05;;;;;;;30.55;20.88;;;5.60;99.90;;;;;;5049047;28;20048;-49
2021/04/21 01:09:13;;;;;;;34.13;21.67;;;5.60;99.90;;;;;;5048020;28;20052;-51
2021/04/21 01:12:20;;;;;;;42.17;27.05;;;5.50;99.90;;;;;;5048222;28;20048;-49
2021/04/21 01:15:26;;;;;;;43.08;29.40;;;5.50;99.90;;;;;;5048741;28;20051;-54
2021/04/21 01:18:33;;;;;;;34.47;22.38;;;5.50;99.90;;;;;;5049372;28;20055;-56
2021/04/21 01:21:53;;;;;;;32.28;20.67;;;5.50;99.90;;;;;;5049419;28;20052;-53
2021/04/21 01:25:24;;;;;;;30.85;20.85;;;5.50;99.90;;;;;;5049677;28;20068;-54
2021/04/21 01:28:30;;;;;;;29.52;21.38;;;5.50;99.90;;;;;;5048113;28;20431;-51
2021/04/21 01:31:37;;;;;;;33.08;21.63;;;5.50;99.90;;;;;;5048897;28;20515;-52
2021/04/21 01:34:43;;;;;;;31.80;20.73;;;5.40;99.90;;;;;;5049190;28;20555;-51
2021/04/21 01:37:54;;;;;;;29.85;19.75;;;5.50;99.90;;;;;;5048845;28;20048;-54
2021/04/21 01:41:04;;;;;;;31.10;19.67;;;5.50;99.90;;;;;;5049054;28;20052;-51
2021/04/21 01:44:13;;;;;;;26.75;18.02;;;5.50;99.90;;;;;;5048075;28;20048;-54
2021/04/21 01:47:22;;;;;;;25.23;16.55;;;5.60;99.90;;;;;;5052125;28;20044;-50
2021/04/21 01:50:26;;;;;;;25.40;16.08;;;5.70;99.90;;;;;;5052883;28;20040;-51
2021/04/21 01:53:50;;;;;;;25.73;15.85;;;5.70;99.90;;;;;;5052246;28;20047;-49
2021/04/21 01:57:04;;;;;;;25.73;16.45;;;5.70;99.90;;;;;;5052183;28;20063;-50
2021/04/21 02:00:12;;;;;;;23.23;16.23;;;5.70;99.90;;;;;;5052150;28;20044;-52
2021/04/21 02:03:26;;;;;;;24.48;16.92;;;5.60;99.90;;;;;;5052452;28;20517;-50
2021/04/21 02:06:47;;;;;;;25.67;17.17;;;5.50;99.90;;;;;;5052245;28;20040;-49
2021/04/21 02:10:25;;;;;;;25.60;16.83;;;5.40;99.90;;;;;;5052195;28;20048;-53
2021/04/21 02:13:57;;;;;;;25.23;16.98;;;5.40;99.90;;;;;;5052077;28;20526;-49
2021/04/21 02:17:21;;;;;;;36.80;16.38;;;5.40;99.90;;;;;;5052561;28;20048;-50
2021/04/21 02:20:38;;;;;;;22.58;14.85;;;5.20;99.90;;;;;;5051545;28;20048;-51
2021/04/21 02:24:07;;;;;;;298.52;30.70;;;4.90;99.90;;;;;;5052031;28;20044;-52
2021/04/21 02:27:29;;;;;;;338.13;26.35;;;4.60;99.90;;;;;;5049034;28;20036;-49
2021/04/21 02:30:58;;;;;;;370.25;27.65;;;4.30;99.90;;;;;;5031610;28;20053;-52
2021/04/21 02:34:11;;;;;;;377.17;29.15;;;4.10;99.90;;;;;;5032010;28;20408;-50
2021/04/21 02:37:47;;;;;;;236.07;26.48;;;4.00;99.90;;;;;;5031483;28;20095;-51
2021/04/21 02:41:01;;;;;;;269.40;25.98;;;4.00;99.90;;;;;;5031246;28;20033;-52
2021/04/21 02:44:30;;;;;;;338.10;28.73;;;4.10;99.90;;;;;;5032385;28;20428;-53
2021/04/21 02:47:49;;;;;;;271.80;27.45;;;4.20;99.90;;;;;;5031397;28;20056;-49
2021/04/21 02:51:33;;;;;;;207.38;21.85;;;4.30;99.90;;;;;;5029513;28;20045;-49
2021/04/21 02:54:40;;;;;;;351.30;30.30;;;4.40;99.90;;;;;;5030767;28;20052;-52
2021/04/21 02:58:07;;;;;;;207.85;24.75;;;4.40;99.90;;;;;;5031245;28;20052;-49
2021/04/21 03:01:51;;;;;;;330.75;28.63;;;4.50;99.90;;;;;;5030903;28;20037;-53
2021/04/21 03:05:24;;;;;;;375.90;38.20;;;4.50;99.90;;;;;;5031529;28;20033;-50
2021/04/21 03:08:38;;;;;;;160.02;25.67;;;4.50;99.90;;;;;;5030556;28;20109;-49
2021/04/21 03:11:43;;;;;;;85.85;21.70;;;4.50;99.90;;;;;;5031566;28;20053;-52
2021/04/21 03:14:51;;;;;;;46.22;18.38;;;4.50;99.90;;;;;;5031605;28;20056;-50
2021/04/21 03:17:57;;;;;;;27.75;16.73;;;4.50;99.90;;;;;;5031594;28;20048;-55
2021/04/21 03:21:28;;;;;;;27.38;16.73;;;4.50;99.90;;;;;;5031004;28;20045;-50
2021/04/21 03:24:35;;;;;;;26.67;17.50;;;4.60;99.90;;;;;;5030611;28;20534;-49
2021/04/21 03:27:47;;;;;;;23.05;14.25;;;4.60;99.90;;;;;;5046285;28;20056;-54
2021/04/21 03:30:57;;;;;;;21.98;14.38;;;4.60;99.90;;;;;;5050443;28;20052;-49
2021/04/21 03:34:06;;;;;;;22.23;14.80;;;4.50;99.90;;;;;;5051072;28;20052;-49
2021/04/21 03:37:39;;;;;;;26.50;16.35;;;4.30;99.90;;;;;;5050456;28;20531;-50
2021/04/21 03:40:43;;;;;;;24.85;15.40;;;4.40;99.90;;;;;;5050026;28;20044;-53
2021/04/21 03:43:48;;;;;;;26.10;15.07;;;4.50;99.90;;;;;;5050573;28;20419;-52
2021/04/21 03:46:52;;;;;;;21.88;14.18;;;4.50;99.90;;;;;;5049524;28;20056;-49
2021/04/21 03:49:57;;;;;;;18.33;12.98;;;4.60;99.90;;;;;;5050365;28;20399;-49
2021/04/21 03:53:03;;;;;;;27.50;13.98;;;4.60;99.90;;;;;;5050304;28;20403;-50
2021/04/21 03:56:11;;;;;;;19.75;12.98;;;4.60;99.90;;;;;;5050236;28;20043;-49
2021/04/21 03:59:17;;;;;;;23.35;14.65;;;4.60;99.90;;;;;;5049278;28;20047;-48
2021/04/21 04:02:25;;;;;;;19.95;13.10;;;4.70;99.90;;;;;;5050309;28;20048;-52
2021/04/21 04:05:41;;;;;;;25.17;16.75;;;4.70;99.90;;;;;;5050175;28;20407;-49
2021/04/21 04:08:50;;;;;;;442.38;31.50;;;4.60;99.90;;;;;;5049343;28;20083;-50
2021/04/21 04:11:58;;;;;;;624.92;43.33;;;3.90;99.90;;;;;;5049322;28;20048;-49
2021/04/21 04:15:03;;;;;;;145.75;16.88;;;3.40;99.90;;;;;;5050067;28;20044;-49
2021/04/21 04:18:09;;;;;;;417.10;31.05;;;3.30;99.90;;;;;;5049825;28;20040;-49
2021/04/21 04:21:16;;;;;;;223.68;19.67;;;3.20;99.90;;;;;;5046583;28;20056;-49
2021/04/21 04:24:23;;;;;;;232.98;20.00;;;3.20;99.90;;;;;;5048735;28;20321;-52
2021/04/21 04:27:29;;;;;;;120.47;16.40;;;3.20;99.90;;;;;;5048816;28;20040;-52
2021/04/21 04:30:41;;;;;;;32.95;13.38;;;3.20;99.90;;;;;;5048744;28;20055;-51
2021/04/21 04:33:51;;;;;;;51.58;13.32;;;3.30;99.90;;;;;;5048904;28;20514;-49
2021/04/21 04:36:55;;;;;;;27.90;11.90;;;3.30;99.90;;;;;;5048837;28;20036;-49
2021/04/21 04:40:01;;;;;;;26.10;11.60;;;3.30;99.90;;;;;;5048967;28;20415;-50
2021/04/21 04:43:06;;;;;;;15.77;10.90;;;3.30;99.90;;;;;;5048801;28;20052;-49
2021/04/21 04:46:15;;;;;;;17.10;11.57;;;3.30;99.90;;;;;;5035334;28;20037;-51
2021/04/21 04:49:20;;;;;;;20.38;13.57;;;3.40;99.90;;;;;;5029782;28;20523;-49
2021/04/21 04:52:25;;;;;;;19.15;12.88;;;3.50;99.90;;;;;;5028977;28;20526;-49
2021/04/21 04:55:29;;;;;;;20.65;12.68;;;3.70;99.90;;;;;;5028968;28;20040;-49
2021/04/21 04:58:38;;;;;;;28.77;14.02;;;3.80;99.90;;;;;;5028271;28;20072;-49
2021/04/21 05:01:57;;;;;;;24.98;15.82;;;3.90;99.90;;;;;;5027841;28;21410;-50
2021/04/21 05:05:09;;;;;;;27.58;15.60;;;4.10;99.90;;;;;;5032878;28;20044;-53
2021/04/21 05:08:19;;;;;;;19.88;12.65;;;4.30;99.90;;;;;;5029207;28;20045;-49
2021/04/21 05:11:25;;;;;;;22.75;13.75;;;4.50;99.90;;;;;;5031975;28;20051;-50
2021/04/21 05:14:33;;;;;;;18.15;11.20;;;4.60;99.90;;;;;;5038112;28;20048;-49
2021/04/21 05:18:13;;;;;;;23.00;15.32;;;4.80;99.90;;;;;;5035138;28;20503;-50
2021/04/21 05:22:02;;;;;;;23.67;15.25;;;5.30;99.90;;;;;;5036284;28;20786;-50
2021/04/21 05:25:15;;;;;;;19.13;13.18;;;6.70;99.90;;;;;;5032973;28;20052;-50
2021/04/21 05:28:37;;;;;;;17.33;11.45;;;8.60;99.90;;;;;;5035456;28;20040;-49
2021/04/21 05:32:03;;;;;;;13.45;9.30;;;10.60;99.90;;;;;;5034964;28;20044;-49
2021/04/21 05:35:54;;;;;;;10.88;7.97;;;11.20;99.90;;;;;;5034915;28;20040;-55
2021/04/21 05:39:20;;;;;;;10.13;7.53;;;12.50;99.90;;;;;;5047537;28;20573;-52
2021/04/21 05:42:52;;;;;;;9.50;7.13;;;13.50;99.90;;;;;;5032541;28;20053;-49
2021/04/21 05:46:27;;;;;;;9.32;7.25;;;13.20;99.90;;;;;;5034378;28;20040;-50
2021/04/21 05:50:05;;;;;;;7.85;6.60;;;13.20;99.90;;;;;;5031222;28;20040;-52
2021/04/21 05:53:37;;;;;;;8.90;7.00;;;14.20;99.90;;;;;;5031547;28;20443;-54
2021/04/21 05:57:21;;;;;;;9.98;6.35;;;14.90;99.90;;;;;;5035988;28;20040;-50
2021/04/21 06:00:54;;;;;;;7.70;6.40;;;16.00;99.90;;;;;;5037580;28;20045;-50
2021/04/21 06:03:58;;;;;;;8.73;6.15;;;15.10;99.90;;;;;;5033273;28;20040;-51
2021/04/21 06:07:14;;;;;;;9.98;6.13;;;13.40;99.90;;;;;;5033744;28;20519;-54
2021/04/21 06:10:26;;;;;;;7.03;5.57;;;13.60;99.90;;;;;;5040203;28;20507;-48
2021/04/21 06:13:32;;;;;;;6.93;5.10;;;15.20;99.90;;;;;;5040445;28;20056;-49
2021/04/21 06:16:37;;;;;;;8.23;5.57;;;14.60;99.90;;;;;;5031429;28;20041;-48
2021/04/21 06:19:44;;;;;;;6.57;5.38;;;13.60;99.90;;;;;;5032698;28;20045;-49
2021/04/21 06:23:06;;;;;;;222.95;12.13;;;12.70;99.90;;;;;;5037245;28;20534;-51
2021/04/21 06:26:10;;;;;;;;;;;10.40;99.90;;;;;;5035140;28;20063;-50
2021/04/21 06:29:14;;;;;;;412.20;20.60;;;9.80;99.90;;;;;;5038955;28;19920;-49
2021/04/21 06:32:21;;;;;;;153.50;11.05;;;9.20;99.90;;;;;;5030546;28;20045;-49
2021/04/21 06:35:29;;;;;;;211.98;12.48;;;9.30;99.90;;;;;;5035878;28;20040;-48
2021/04/21 06:38:35;;;;;;;35.35;8.57;;;10.50;99.90;;;;;;5035293;28;20542;-49
2021/04/21 06:41:40;;;;;;;8.35;6.32;;;12.00;99.90;;;;;;5044666;28;20055;-50
2021/04/21 06:44:50;;;;;;;17.25;7.03;;;13.10;99.90;;;;;;5033772;28;20037;-50
2021/04/21 06:47:56;;;;;;;14.73;7.00;;;13.70;99.90;;;;;;5031585;28;20407;-49
2021/04/21 06:51:15;;;;;;;16.42;8.45;;;14.50;99.90;;;;;;5033097;28;20048;-50
2021/04/21 06:54:21;;;;;;;24.35;10.13;;;14.40;99.90;;;;;;5032772;28;20040;-48
2021/04/21 06:57:30;;;;;;;15.20;11.25;;;13.00;99.90;;;;;;5031959;28;20428;-51
2021/04/21 07:00:35;;;;;;;12.32;8.90;;;11.50;99.90;;;;;;5030372;28;20037;-50
2021/04/21 07:03:42;;;;;;;12.27;9.02;;;12.90;99.90;;;;;;5030948;28;20056;-50
2021/04/21 07:06:49;;;;;;;11.50;8.38;;;14.40;99.90;;;;;;5039936;28;20044;-47
2021/04/21 07:09:55;;;;;;;9.82;7.63;;;15.90;99.90;;;;;;5037222;28;20044;-47
2021/04/21 07:13:00;;;;;;;9.18;6.47;;;14.30;99.90;;;;;;5047931;28;20052;-49
2021/04/21 07:16:10;;;;;;;8.85;6.90;;;14.90;99.90;;;;;;5029641;28;20056;-50
2021/04/21 07:19:17;;;;;;;6.75;5.80;;;15.90;99.90;;;;;;5032265;28;20396;-49
2021/04/21 07:22:23;;;;;;;9.32;6.22;;;16.20;99.90;;;;;;5029123;28;20049;-51
2021/04/21 07:25:27;;;;;;;9.02;7.05;;;14.90;99.90;;;;;;5033243;28;20036;-50
2021/04/21 07:28:36;;;;;;;7.78;6.60;;;16.40;99.90;;;;;;5030030;28;20032;-52
2021/04/21 07:31:40;;;;;;;9.88;6.68;;;16.20;99.90;;;;;;5034303;28;20067;-52
2021/04/21 07:34:44;;;;;;;7.93;6.70;;;16.40;99.90;;;;;;5038713;28;20042;-53
2021/04/21 07:37:50;;;;;;;7.80;6.72;;;16.20;99.90;;;;;;5042041;28;20036;-54
2021/04/21 07:40:54;;;;;;;8.10;7.00;;;15.90;99.90;;;;;;5042189;28;20042;-51
2021/04/21 07:44:00;;;;;;;7.57;6.53;;;16.20;99.90;;;;;;5030959;28;20041;-53
2021/04/21 07:47:07;;;;;;;7.60;6.35;;;17.60;99.90;;;;;;5031940;28;20060;-51
2021/04/21 07:50:11;;;;;;;7.68;6.60;;;18.30;99.90;;;;;;5037179;28;20052;-47
2021/04/21 07:53:15;;;;;;;8.52;7.07;;;19.50;99.00;;;;;;5034213;28;20050;-49
2021/04/21 07:56:22;;;;;;;8.75;7.53;;;17.20;99.90;;;;;;5040343;28;20032;-49
2021/04/21 07:59:33;;;;;;;10.43;6.90;;;17.40;99.90;;;;;;5029333;28;20049;-53
2021/04/21 08:02:37;;;;;;;8.90;6.97;;;18.60;99.90;;;;;;5029376;28;20048;-49
2021/04/21 08:05:51;;;;;;;12.18;8.15;;;19.70;99.00;;;;;;5032688;28;20037;-52
2021/04/21 08:08:55;;;;;;;8.98;7.82;;;20.50;98.10;;;;;;5033839;28;20542;-50
2021/04/21 08:12:13;;;;;;;9.30;7.63;;;22.10;95.70;;;;;;5031421;28;20046;-48
2021/04/21 08:15:19;;;;;;;8.32;7.40;;;22.10;92.50;;;;;;5030778;28;20045;-49
2021/04/21 08:18:31;;;;;;;6.90;6.20;;;20.00;96.10;;;;;;5035155;28;20439;-45
2021/04/21 08:21:48;;;;;;;7.57;6.75;;;21.10;95.60;;;;;;5031129;28;20412;-47
2021/04/21 08:24:55;;;;;;;9.57;6.10;;;20.40;96.00;;;;;;5034270;28;20040;-54
2021/04/21 08:27:59;;;;;;;8.48;6.38;;;20.90;96.60;;;;;;5035024;28;20052;-52
2021/04/21 08:31:04;;;;;;;9.57;6.35;;;23.40;93.70;;;;;;5028790;28;20616;-49
2021/04/21 08:34:08;;;;;;;7.97;6.00;;;23.70;93.20;;;;;;5027391;28;20141;-49
2021/04/21 08:37:12;;;;;;;7.40;6.32;;;22.80;91.80;;;;;;5031673;28;20112;-53
2021/04/21 08:40:20;;;;;;;8.23;6.95;;;22.20;92.80;;;;;;5028005;28;20045;-48
2021/04/21 08:43:25;;;;;;;8.10;6.32;;;20.90;94.10;;;;;;5032768;28;20029;-48
2021/04/21 08:46:30;;;;;;;10.75;6.88;;;22.00;93.50;;;;;;5028428;28;20041;-48
2021/04/21 08:49:35;;;;;;;8.07;6.30;;;19.60;95.10;;;;;;5028082;28;20048;-50
2021/04/21 08:52:50;;;;;;;7.07;5.80;;;22.50;94.70;;;;;;5036638;28;20415;-46
2021/04/21 08:55:55;;;;;;;7.15;5.55;;;20.80;93.80;;;;;;5032495;28;20691;-48
2021/04/21 08:58:59;;;;;;;6.60;5.82;;;23.50;92.20;;;;;;5034595;28;20064;-48
2021/04/21 09:02:03;;;;;;;9.38;6.13;;;22.30;92.60;;;;;;5030561;28;20052;-48
2021/04/21 09:05:09;;;;;;;7.85;6.72;;;19.60;95.30;;;;;;5036542;28;20040;-49
2021/04/21 09:08:13;;;;;;;7.50;6.35;;;20.70;96.00;;;;;;5036432;28;20571;-48
2021/04/21 09:11:21;;;;;;;8.50;6.78;;;19.80;94.20;;;;;;5030865;28;20047;-48
2021/04/21 09:14:25;;;;;;;10.70;7.65;;;19.10;95.00;;;;;;5032037;28;20037;-51
2021/04/21 09:17:31;;;;;;;10.07;7.05;;;17.90;96.50;;;;;;5032744;28;20047;-48
2021/04/21 09:20:47;;;;;;;9.20;8.10;;;18.20;96.80;;;;;;5029331;28;20041;-49
2021/04/21 09:23:51;;;;;;;9.65;7.90;;;19.00;96.00;;;;;;5034563;28;20402;-52
2021/04/21 09:26:55;;;;;;;8.80;6.78;;;19.00;97.40;;;;;;5036797;28;20507;-49
2021/04/21 09:30:22;;;;;;;8.25;6.20;;;22.90;94.40;;;;;;5038104;28;20410;-55
2021/04/21 09:33:28;;;;;;;7.00;6.25;;;25.50;90.00;;;;;;5035654;28;20037;-48
2021/04/21 09:36:33;;;;;;;6.82;6.13;;;26.80;86.80;;;;;;5034565;28;20811;-51
2021/04/21 09:39:38;;;;;;;9.57;6.13;;;27.40;82.50;;;;;;5032288;28;20037;-47
2021/04/21 09:42:54;;;;;;;7.50;5.85;;;23.30;85.10;;;;;;5038897;28;20044;-49
2021/04/21 09:46:02;;;;;;;7.88;6.32;;;23.10;87.10;;;;;;5033352;28;20404;-48
2021/04/21 09:49:28;;;;;;;8.25;6.03;;;24.10;84.50;;;;;;5030293;28;20391;-49
2021/04/21 09:52:33;;;;;;;7.85;6.70;;;24.70;81.20;;;;;;5028930;28;20041;-49
2021/04/21 09:55:57;;;;;;;7.03;5.80;;;23.60;80.10;;;;;;5026213;28;20033;-49
2021/04/21 09:59:04;;;;;;;10.77;5.68;;;24.80;78.80;;;;;;5026648;28;20416;-48
2021/04/21 10:02:40;;;;;;;7.22;5.88;;;26.70;76.90;;;;;;5029268;28;20040;-47
2021/04/21 10:05:45;;;;;;;7.63;5.38;;;26.90;75.70;;;;;;5029000;28;20033;-47
2021/04/21 10:08:49;;;;;;;7.82;5.75;;;27.10;71.30;;;;;;5030926;28;20519;-49
2021/04/21 10:12:20;;;;;;;6.32;4.57;;;27.60;67.90;;;;;;5032927;28;20048;-48
2021/04/21 10:15:29;;;;;;;7.40;4.35;;;24.60;65.60;;;;;;5034359;28;20041;-53
2021/04/21 10:18:34;;;;;;;6.60;4.43;;;27.20;69.30;;;;;;5033361;28;20051;-52
2021/04/21 10:21:38;;;;;;;5.47;4.68;;;27.70;61.80;;;;;;5031130;28;20029;-51
2021/04/21 10:24:43;;;;;;;7.07;4.63;;;28.40;65.40;;;;;;5046137;28;20041;-49
2021/04/21 10:27:47;;;;;;;6.65;4.18;;;28.60;60.90;;;;;;5050466;28;20044;-50
2021/04/21 10:30:52;;;;;;;7.00;4.35;;;29.10;61.30;;;;;;5051388;28;20044;-48
2021/04/21 10:33:57;;;;;;;4.13;3.72;;;23.90;63.60;;;;;;5039748;28;20072;-53
2021/04/21 10:37:03;;;;;;;6.28;3.70;;;23.60;60.30;;;;;;5032173;28;20638;-51
2021/04/21 10:40:11;;;;;;;5.05;3.85;;;26.30;63.50;;;;;;5031110;28;20048;-47
2021/04/21 10:43:38;;;;;;;5.28;3.63;;;27.60;59.70;;;;;;5032766;28;20037;-48
2021/04/21 10:46:57;;;;;;;4.80;3.60;;;27.70;62.90;;;;;;5033029;28;20511;-50
2021/04/21 10:50:05;;;;;;;3.80;3.35;;;24.10;62.40;;;;;;5031744;28;20783;-51
2021/04/21 10:53:43;;;;;;;4.47;3.80;;;23.10;66.30;;;;;;5033535;28;20519;-51
2021/04/21 10:56:48;;;;;;;3.72;3.08;;;22.30;68.30;;;;;;5032074;28;20045;-49
2021/04/21 11:00:27;;;;;;;5.50;4.10;;;24.70;66.50;;;;;;5037618;28;20042;-53
2021/04/21 11:03:41;;;;;;;3.85;3.42;;;25.60;65.20;;;;;;5031871;28;20038;-49
2021/04/21 11:06:48;;;;;;;6.28;3.75;;;26.50;62.00;;;;;;5037285;28;20544;-53
2021/04/21 11:09:53;;;;;;;5.82;4.40;;;25.10;64.90;;;;;;5046745;28;20513;-50
2021/04/21 11:12:59;;;;;;;5.45;4.00;;;20.80;71.30;;;;;;5030255;28;20038;-48
2021/04/21 11:16:21;;;;;;;7.85;5.57;;;24.00;68.60;;;;;;5043787;28;20044;-48
2021/04/21 11:19:28;;;;;;;6.15;4.85;;;23.90;68.00;;;;;;5032452;28;20041;-48
2021/04/21 11:22:32;;;;;;;8.85;4.82;;;26.50;65.80;;;;;;5031750;28;20041;-52
2021/04/21 11:25:36;;;;;;;4.88;3.83;;;26.10;63.60;;;;;;5033360;28;20037;-47
2021/04/21 11:29:02;;;;;;;5.93;3.58;;;26.80;63.40;;;;;;5039616;28;20034;-50
2021/04/21 11:32:07;;;;;;;4.80;3.38;;;27.20;62.80;;;;;;5043646;28;20494;-50
2021/04/21 11:35:27;;;;;;;4.63;3.60;;;27.90;62.60;;;;;;5048916;28;20065;-53
2021/04/21 11:38:41;;;;;;;4.75;3.30;;;30.40;61.50;;;;;;5040343;28;20044;-50
2021/04/21 11:41:47;;;;;;;5.45;3.90;;;29.80;61.50;;;;;;5030580;28;20048;-49
2021/04/21 11:44:58;;;;;;;5.55;4.15;;;27.30;62.50;;;;;;5042190;28;20045;-51
2021/04/21 11:48:03;;;;;;;4.80;3.60;;;27.60;63.10;;;;;;5048788;28;20415;-51
2021/04/21 11:51:17;;;;;;;3.78;3.28;;;27.50;63.70;;;;;;5033959;28;20055;-48
2021/04/21 11:54:21;;;;;;;3.22;2.60;;;28.00;60.40;;;;;;5045956;28;20547;-51
2021/04/21 11:57:25;;;;;;;3.60;2.90;;;26.80;60.40;;;;;;5047642;28;20061;-52
2021/04/21 12:00:44;;;;;;;6.03;3.10;;;24.70;61.50;;;;;;5050296;28;20052;-48
2021/04/21 12:03:49;;;;;;;5.55;3.70;;;24.10;61.40;;;;;;5049104;28;20063;-53
2021/04/21 12:06:52;;;;;;;8.20;3.33;;;23.30;65.30;;;;;;5045511;28;20044;-49
2021/04/21 12:09:59;;;;;;;3.85;2.72;;;26.20;65.20;;;;;;5029337;28;20045;-50
2021/04/21 12:13:20;;;;;;;3.33;2.42;;;29.80;61.70;;;;;;5028381;28;20338;-50
2021/04/21 12:16:27;;;;;;;3.97;2.83;;;32.70;55.10;;;;;;5029598;28;20037;-48
2021/04/21 12:19:32;;;;;;;4.03;3.42;;;29.50;52.80;;;;;;5030824;28;20037;-51
2021/04/21 12:22:41;;;;;;;4.88;3.30;;;25.30;57.30;;;;;;5028434;28;20048;-47
2021/04/21 12:25:46;;;;;;;5.35;3.72;;;23.50;64.20;;;;;;5030563;28;20033;-48
2021/04/21 12:28:58;;;;;;;5.43;3.83;;;23.10;66.50;;;;;;5032313;28;20052;-49
2021/04/21 12:32:05;;;;;;;3.92;3.35;;;22.70;65.40;;;;;;5027959;28;20049;-53
2021/04/21 12:35:11;;;;;;;7.00;4.13;;;22.40;68.50;;;;;;5031023;28;20236;-49
2021/04/21 12:38:26;;;;;;;7.25;3.80;;;22.50;69.00;;;;;;5031383;28;20037;-52
2021/04/21 12:41:31;;;;;;;4.68;3.45;;;23.30;67.00;;;;;;5027652;28;20153;-48
2021/04/21 12:44:40;;;;;;;10.63;3.83;;;24.00;67.40;;;;;;5030860;28;20040;-47
2021/04/21 12:47:44;;;;;;;4.35;3.45;;;24.50;66.10;;;;;;5029427;28;20044;-47
2021/04/21 12:50:50;;;;;;;4.20;3.17;;;25.20;66.60;;;;;;5030445;28;20421;-48
2021/04/21 12:53:54;;;;;;;4.28;3.22;;;27.00;63.30;;;;;;5028387;28;20528;-49
2021/04/21 12:56:58;;;;;;;3.38;3.08;;;28.00;60.90;;;;;;5029114;28;20048;-49
2021/04/21 13:00:07;;;;;;;3.95;3.55;;;27.20;62.10;;;;;;5033341;28;20048;-47
2021/04/21 13:03:18;;;;;;;5.65;3.20;;;27.20;61.20;;;;;;5034559;28;20063;-48
2021/04/21 13:06:50;;;;;;;3.83;3.42;;;26.50;62.70;;;;;;5036235;28;20040;-50
2021/04/21 13:10:04;;;;;;;;;;;25.90;61.60;;;;;;5030429;28;20048;-50
2021/04/21 13:13:09;;;;;;;4.20;3.30;;;25.90;63.60;;;;;;5028973;28;19920;-49
2021/04/21 13:16:25;;;;;;;3.67;3.22;;;26.10;64.00;;;;;;5027838;28;20040;-49
2021/04/21 13:19:32;;;;;;;6.55;3.20;;;26.10;63.60;;;;;;5027523;28;20034;-48
2021/04/21 13:22:36;;;;;;;5.50;3.22;;;25.80;64.10;;;;;;5042205;28;20040;-48
2021/04/21 13:25:58;;;;;;;3.95;3.40;;;25.60;65.40;;;;;;5035293;28;20550;-48
2021/04/21 13:29:03;;;;;;;3.88;3.47;;;26.00;64.20;;;;;;5047764;28;20041;-50
2021/04/21 13:32:12;;;;;;;5.28;3.28;;;25.70;61.10;;;;;;5048088;28;20518;-47
2021/04/21 13:35:19;;;;;;;5.60;3.35;;;24.50;64.00;;;;;;5049226;28;20041;-51
2021/04/21 13:38:24;;;;;;;8.75;3.45;;;23.30;66.50;;;;;;5048404;28;20040;-50
2021/04/21 13:41:28;;;;;;;3.95;3.22;;;23.40;66.30;;;;;;5050544;28;20047;-47
2021/04/21 13:44:33;;;;;;;6.10;3.15;;;23.60;64.50;;;;;;5053054;28;20046;-47
2021/04/21 13:47:41;;;;;;;4.45;2.97;;;23.90;66.10;;;;;;5052495;28;20512;-47
2021/04/21 13:50:45;;;;;;;6.32;4.13;;;24.50;63.70;;;;;;5053179;28;20050;-47
2021/04/21 13:53:49;;;;;;;4.65;3.50;;;22.80;64.40;;;;;;5052694;28;20055;-52
2021/04/21 13:56:53;;;;;;;4.22;3.38;;;22.50;64.70;;;;;;5052439;28;20048;-48
2021/04/21 13:59:57;;;;;;;5.20;3.40;;;22.30;68.20;;;;;;5052345;28;20051;-47
2021/04/21 14:03:02;;;;;;;3.25;2.67;;;21.60;70.00;;;;;;5052876;28;20053;-48
2021/04/21 14:06:06;;;;;;;3.80;2.80;;;21.50;70.30;;;;;;5051858;28;20526;-49
2021/04/21 14:09:10;;;;;;;5.45;3.35;;;21.00;70.30;;;;;;5052096;28;20041;-47
2021/04/21 14:12:14;;;;;;;4.15;2.80;;;20.20;72.20;;;;;;5052138;28;20033;-46
2021/04/21 14:15:20;;;;;;;5.75;3.00;;;20.20;74.10;;;;;;5052186;28;20044;-47
2021/04/21 14:18:25;;;;;;;4.28;2.55;;;20.30;72.50;;;;;;5051599;28;20048;-47
2021/04/21 14:21:30;;;;;;;3.08;2.30;;;20.20;71.80;;;;;;5052056;28;20056;-48
2021/04/21 14:24:34;;;;;;;4.07;2.53;;;19.60;71.80;;;;;;5052342;28;20044;-49
2021/04/21 14:27:38;;;;;;;5.75;3.00;;;19.80;72.10;;;;;;5051006;28;20048;-48
2021/04/21 14:30:42;;;;;;;6.18;3.03;;;20.20;72.70;;;;;;5052094;28;20044;-47
2021/04/21 14:33:46;;;;;;;4.25;3.20;;;20.60;73.30;;;;;;5051817;28;20036;-48
2021/04/21 14:36:50;;;;;;;3.05;2.42;;;20.90;72.10;;;;;;5051654;28;20059;-48
2021/04/21 14:39:54;;;;;;;10.48;6.30;;;20.90;72.70;;;;;;5051350;28;20044;-47
2021/04/21 14:42:58;;;;;;;6.68;4.15;;;21.10;72.60;;;;;;5050667;28;20395;-48
2021/04/21 14:46:03;;;;;;;4.00;2.70;;;21.10;71.40;;;;;;5051702;28;20040;-47
2021/04/21 14:49:07;;;;;;;5.57;2.38;;;21.00;71.20;;;;;;5051355;28;20044;-47
2021/04/21 14:52:11;;;;;;;3.22;2.10;;;20.70;71.00;;;;;;5051283;28;20052;-48
2021/04/21 14:55:18;;;;;;;4.70;2.30;;;20.60;70.80;;;;;;5051248;28;20041;-50
2021/04/21 14:58:23;;;;;;;3.92;2.10;;;20.60;70.90;;;;;;5051003;28;20048;-50
2021/04/21 15:01:28;;;;;;;3.05;2.10;;;20.50;70.10;;;;;;5051477;28;20518;-47
2021/04/21 15:04:32;;;;;;;2.00;1.70;;;20.60;69.20;;;;;;5050704;28;20044;-49
2021/04/21 15:07:39;;;;;;;4.07;2.42;;;20.70;69.50;;;;;;5051040;28;20044;-48
2021/04/21 15:10:43;;;;;;;3.30;2.45;;;20.40;69.00;;;;;;5051263;28;20042;-47
2021/04/21 15:13:48;;;;;;;2.45;1.70;;;20.00;70.40;;;;;;5051310;28;20036;-48
2021/04/21 15:16:52;;;;;;;3.28;2.20;;;20.20;70.40;;;;;;5050834;28;20041;-48
2021/04/21 15:19:57;;;;;;;3.38;2.42;;;20.30;70.50;;;;;;5050992;28;20491;-48
2021/04/21 15:23:02;;;;;;;2.72;2.00;;;20.00;67.70;;;;;;5050618;28;20048;-49
2021/04/21 15:26:08;;;;;;;2.70;1.92;;;19.80;69.50;;;;;;5050659;28;20041;-47
2021/04/21 15:29:14;;;;;;;3.67;1.90;;;20.00;70.60;;;;;;5050576;28;20512;-48
2021/04/21 15:32:19;;;;;;;3.05;2.45;;;20.00;70.20;;;;;;5050787;28;20041;-49
2021/04/21 15:35:23;;;;;;;3.92;2.58;;;20.00;71.30;;;;;;5051024;28;20048;-47
2021/04/21 15:38:27;;;;;;;3.58;2.70;;;19.90;71.60;;;;;;5050824;28;20099;-47
2021/04/21 15:41:31;;;;;;;5.32;2.95;;;19.90;71.90;;;;;;5050710;28;20439;-48
2021/04/21 15:44:37;;;;;;;5.13;2.70;;;19.80;72.40;;;;;;5051036;28;20040;-48
2021/04/21 15:47:41;;;;;;;6.35;3.35;;;19.90;72.60;;;;;;5050604;28;20406;-48
2021/04/21 15:50:45;;;;;;;4.53;3.30;;;20.00;74.10;;;;;;5050485;28;20041;-48
2021/04/21 15:53:49;;;;;;;3.50;2.85;;;19.90;73.00;;;;;;5050301;28;20029;-48
2021/04/21 15:56:55;;;;;;;3.70;2.67;;;19.80;72.90;;;;;;5049982;28;20040;-47
2021/04/21 16:00:00;;;;;;;6.70;3.33;;;19.50;73.90;;;;;;5050093;28;20040;-48
2021/04/21 16:03:04;;;;;;;5.78;3.75;;;19.30;73.90;;;;;;5049906;28;20523;-48
2021/04/21 16:06:09;;;;;;;4.38;3.28;;;19.10;76.00;;;;;;5049946;28;20029;-48
2021/04/21 16:09:13;;;;;;;4.53;3.15;;;18.70;76.70;;;;;;5049987;28;20033;-48
2021/04/21 16:12:18;;;;;;;5.18;3.38;;;18.40;77.60;;;;;;5049806;28;20622;-48
2021/04/21 16:15:24;;;;;;;5.50;3.00;;;18.10;78.90;;;;;;5049946;28;20431;-48
2021/04/21 16:18:28;;;;;;;4.53;3.20;;;17.70;80.10;;;;;;5050133;28;20071;-49
2021/04/21 16:21:32;;;;;;;6.72;2.70;;;17.60;80.70;;;;;;5049612;28;20156;-47
2021/04/21 16:24:37;;;;;;;5.10;3.05;;;17.50;80.90;;;;;;5049982;28;20040;-47
2021/04/21 16:27:51;;;;;;;4.05;3.10;;;17.60;81.30;;;;;;5049477;28;20518;-48